sensor_id;sensor_type;location;lat;lon;timestamp;temperature;humidity
573;DHT22;271;51.114;13.780;2022-08-06T00:01:13;18.10;1.00
573;DHT22;271;51.114;13.780;2022-08-06T00:03:40;18.10;1.00
573;DHT22;271;51.114;13.780;2022-08-06T00:06:07;18.20;1.00
573;DHT22;271;51.114;13.780;2022-08-06T00:08:34;18.20;1.00
573;DHT22;271;51.114;13.780;2022-08-06T00:11:02;18.30;1.00
573;DHT22;271;51.114;13.780;2022-08-06T00:13:29;18.30;1.00
573;DHT22;271;51.114;13.780;2022-08-06T00:15:55;18.30;1.00
573;DHT22;271;51.114;13.780;2022-08-06T00:18:22;18.30;1.00
573;DHT22;271;51.114;13.780;2022-08-06T00:20:49;18.30;1.00
573;DHT22;271;51.114;13.780;2022-08-06T00:23:16;18.30;1.00
573;DHT22;271;51.114;13.780;2022-08-06T00:25:43;18.30;1.00
573;DHT22;271;51.114;13.780;2022-08-06T00:28:12;18.20;1.00
573;DHT22;271;51.114;13.780;2022-08-06T00:30:39;18.20;1.00
573;DHT22;271;51.114;13.780;2022-08-06T00:33:05;18.10;1.00
573;DHT22;271;51.114;13.780;2022-08-06T00:35:32;18.10;1.00
573;DHT22;271;51.114;13.780;2022-08-06T00:37:59;18.10;1.00
573;DHT22;271;51.114;13.780;2022-08-06T00:40:27;18.00;1.00
573;DHT22;271;51.114;13.780;2022-08-06T00:42:55;17.90;1.00
573;DHT22;271;51.114;13.780;2022-08-06T00:45:23;17.90;1.00
573;DHT22;271;51.114;13.780;2022-08-06T00:47:50;17.80;1.00
573;DHT22;271;51.114;13.780;2022-08-06T00:50:17;17.70;1.00
573;DHT22;271;51.114;13.780;2022-08-06T00:52:44;17.70;1.00
573;DHT22;271;51.114;13.780;2022-08-06T00:55:11;17.60;1.00
573;DHT22;271;51.114;13.780;2022-08-06T00:57:38;17.60;1.00
573;DHT22;271;51.114;13.780;2022-08-06T01:00:07;17.60;1.00
573;DHT22;271;51.114;13.780;2022-08-06T01:02:35;17.60;1.00
573;DHT22;271;51.114;13.780;2022-08-06T01:05:02;17.50;1.00
573;DHT22;271;51.114;13.780;2022-08-06T01:07:29;17.50;1.00
573;DHT22;271;51.114;13.780;2022-08-06T01:09:56;17.50;1.00
573;DHT22;271;51.114;13.780;2022-08-06T01:12:23;17.60;1.00
573;DHT22;271;51.114;13.780;2022-08-06T01:14:50;17.60;1.00
573;DHT22;271;51.114;13.780;2022-08-06T01:17:21;17.60;1.00
573;DHT22;271;51.114;13.780;2022-08-06T01:19:56;17.60;1.00
573;DHT22;271;51.114;13.780;2022-08-06T01:22:42;17.60;1.00
573;DHT22;271;51.114;13.780;2022-08-06T01:25:36;17.60;1.00
573;DHT22;271;51.114;13.780;2022-08-06T01:28:11;17.70;1.00
573;DHT22;271;51.114;13.780;2022-08-06T01:30:44;17.60;1.00
573;DHT22;271;51.114;13.780;2022-08-06T01:33:14;17.70;1.00
573;DHT22;271;51.114;13.780;2022-08-06T01:35:49;17.70;1.00
573;DHT22;271;51.114;13.780;2022-08-06T01:38:22;17.80;1.00
573;DHT22;271;51.114;13.780;2022-08-06T01:40:51;17.70;1.00
573;DHT22;271;51.114;13.780;2022-08-06T01:43:21;17.70;1.00
573;DHT22;271;51.114;13.780;2022-08-06T01:45:50;17.80;1.00
573;DHT22;271;51.114;13.780;2022-08-06T01:48:21;17.80;1.00
573;DHT22;271;51.114;13.780;2022-08-06T01:50:49;17.70;1.00
573;DHT22;271;51.114;13.780;2022-08-06T01:53:23;17.80;1.00
573;DHT22;271;51.114;13.780;2022-08-06T01:55:54;17.80;1.00
573;DHT22;271;51.114;13.780;2022-08-06T01:58:27;17.80;1.00
573;DHT22;271;51.114;13.780;2022-08-06T02:00:56;17.80;1.00
573;DHT22;271;51.114;13.780;2022-08-06T02:03:28;17.80;1.00
573;DHT22;271;51.114;13.780;2022-08-06T02:05:57;17.80;1.00
573;DHT22;271;51.114;13.780;2022-08-06T02:08:29;17.80;1.00
573;DHT22;271;51.114;13.780;2022-08-06T02:10:59;17.70;1.00
573;DHT22;271;51.114;13.780;2022-08-06T02:13:29;17.70;1.00
573;DHT22;271;51.114;13.780;2022-08-06T02:15:58;17.70;1.00
573;DHT22;271;51.114;13.780;2022-08-06T02:18:27;17.70;1.00
573;DHT22;271;51.114;13.780;2022-08-06T02:20:57;17.80;1.00
573;DHT22;271;51.114;13.780;2022-08-06T02:23:25;17.60;1.00
573;DHT22;271;51.114;13.780;2022-08-06T02:25:54;17.60;1.00
573;DHT22;271;51.114;13.780;2022-08-06T02:28:23;17.70;1.00
573;DHT22;271;51.114;13.780;2022-08-06T02:30:56;17.60;1.00
573;DHT22;271;51.114;13.780;2022-08-06T02:33:24;17.50;1.00
573;DHT22;271;51.114;13.780;2022-08-06T02:35:54;17.50;1.00
573;DHT22;271;51.114;13.780;2022-08-06T02:38:25;17.50;1.00
573;DHT22;271;51.114;13.780;2022-08-06T02:40:59;17.40;1.00
573;DHT22;271;51.114;13.780;2022-08-06T02:43:31;17.30;1.00
573;DHT22;271;51.114;13.780;2022-08-06T02:46:03;17.40;1.00
573;DHT22;271;51.114;13.780;2022-08-06T02:48:37;17.30;1.00
573;DHT22;271;51.114;13.780;2022-08-06T02:51:08;17.30;1.00
573;DHT22;271;51.114;13.780;2022-08-06T02:53:42;17.30;99.90
573;DHT22;271;51.114;13.780;2022-08-06T02:56:12;17.20;99.90
573;DHT22;271;51.114;13.780;2022-08-06T02:58:42;17.20;99.90
573;DHT22;271;51.114;13.780;2022-08-06T03:01:14;17.10;1.00
573;DHT22;271;51.114;13.780;2022-08-06T03:03:44;17.20;1.00
573;DHT22;271;51.114;13.780;2022-08-06T03:06:12;17.10;99.90
573;DHT22;271;51.114;13.780;2022-08-06T03:08:41;17.10;1.00
573;DHT22;271;51.114;13.780;2022-08-06T03:11:10;17.00;1.00
573;DHT22;271;51.114;13.780;2022-08-06T03:13:38;17.00;99.90
573;DHT22;271;51.114;13.780;2022-08-06T03:16:06;16.90;99.90
573;DHT22;271;51.114;13.780;2022-08-06T03:18:36;16.90;99.90
573;DHT22;271;51.114;13.780;2022-08-06T03:21:03;16.90;99.90
573;DHT22;271;51.114;13.780;2022-08-06T03:23:32;16.90;99.90
573;DHT22;271;51.114;13.780;2022-08-06T03:26:00;16.70;13.60
573;DHT22;271;51.114;13.780;2022-08-06T03:28:27;16.70;44.80
573;DHT22;271;51.114;13.780;2022-08-06T03:30:55;16.70;99.90
573;DHT22;271;51.114;13.780;2022-08-06T03:33:23;16.70;14.00
573;DHT22;271;51.114;13.780;2022-08-06T03:35:53;16.70;99.90
573;DHT22;271;51.114;13.780;2022-08-06T03:38:20;16.70;99.90
573;DHT22;271;51.114;13.780;2022-08-06T03:40:48;16.70;99.90
573;DHT22;271;51.114;13.780;2022-08-06T03:43:15;16.70;99.90
573;DHT22;271;51.114;13.780;2022-08-06T03:45:46;16.70;99.90
573;DHT22;271;51.114;13.780;2022-08-06T03:48:17;16.70;99.90
573;DHT22;271;51.114;13.780;2022-08-06T03:50:48;16.70;99.90
573;DHT22;271;51.114;13.780;2022-08-06T03:53:19;16.60;99.90
573;DHT22;271;51.114;13.780;2022-08-06T03:55:47;16.60;99.90
573;DHT22;271;51.114;13.780;2022-08-06T03:58:16;16.50;99.90
573;DHT22;271;51.114;13.780;2022-08-06T04:00:46;16.50;99.90
573;DHT22;271;51.114;13.780;2022-08-06T04:03:16;16.50;99.90
573;DHT22;271;51.114;13.780;2022-08-06T04:05:44;16.50;99.90
573;DHT22;271;51.114;13.780;2022-08-06T04:08:11;16.30;99.90
573;DHT22;271;51.114;13.780;2022-08-06T04:10:43;16.30;99.90
573;DHT22;271;51.114;13.780;2022-08-06T04:13:12;16.30;1.00
573;DHT22;271;51.114;13.780;2022-08-06T04:15:40;16.20;20.00
573;DHT22;271;51.114;13.780;2022-08-06T04:18:09;16.10;1.00
573;DHT22;271;51.114;13.780;2022-08-06T04:20:36;16.10;87.10
573;DHT22;271;51.114;13.780;2022-08-06T04:23:04;16.10;1.00
573;DHT22;271;51.114;13.780;2022-08-06T04:25:39;16.10;29.20
573;DHT22;271;51.114;13.780;2022-08-06T04:28:09;16.00;1.00
573;DHT22;271;51.114;13.780;2022-08-06T04:30:37;16.00;1.00
573;DHT22;271;51.114;13.780;2022-08-06T04:33:08;16.00;1.00
573;DHT22;271;51.114;13.780;2022-08-06T04:35:37;16.00;99.90
573;DHT22;271;51.114;13.780;2022-08-06T04:38:05;15.90;99.90
573;DHT22;271;51.114;13.780;2022-08-06T04:40:33;15.90;99.90
573;DHT22;271;51.114;13.780;2022-08-06T04:43:00;15.90;99.90
573;DHT22;271;51.114;13.780;2022-08-06T04:45:29;16.00;1.00
573;DHT22;271;51.114;13.780;2022-08-06T04:47:56;16.00;73.70
573;DHT22;271;51.114;13.780;2022-08-06T04:50:24;15.90;1.00
573;DHT22;271;51.114;13.780;2022-08-06T04:52:51;15.90;1.00
573;DHT22;271;51.114;13.780;2022-08-06T04:55:18;15.90;1.00
573;DHT22;271;51.114;13.780;2022-08-06T04:57:46;15.90;1.00
573;DHT22;271;51.114;13.780;2022-08-06T05:00:13;15.90;1.00
573;DHT22;271;51.114;13.780;2022-08-06T05:02:42;15.90;1.00
573;DHT22;271;51.114;13.780;2022-08-06T05:05:09;15.90;1.00
573;DHT22;271;51.114;13.780;2022-08-06T05:07:39;15.90;1.00
573;DHT22;271;51.114;13.780;2022-08-06T05:10:07;16.00;1.00
573;DHT22;271;51.114;13.780;2022-08-06T05:12:38;16.00;1.00
573;DHT22;271;51.114;13.780;2022-08-06T05:15:10;16.10;53.30
573;DHT22;271;51.114;13.780;2022-08-06T05:17:40;16.20;1.00
573;DHT22;271;51.114;13.780;2022-08-06T05:20:13;16.40;1.00
573;DHT22;271;51.114;13.780;2022-08-06T05:22:41;16.40;1.00
573;DHT22;271;51.114;13.780;2022-08-06T05:25:09;16.60;1.00
573;DHT22;271;51.114;13.780;2022-08-06T05:27:36;16.80;1.00
573;DHT22;271;51.114;13.780;2022-08-06T05:30:06;16.90;1.00
573;DHT22;271;51.114;13.780;2022-08-06T05:32:40;16.90;1.00
573;DHT22;271;51.114;13.780;2022-08-06T05:35:07;17.00;1.00
573;DHT22;271;51.114;13.780;2022-08-06T05:37:36;17.20;1.00
573;DHT22;271;51.114;13.780;2022-08-06T05:40:04;17.40;1.00
573;DHT22;271;51.114;13.780;2022-08-06T05:42:31;17.50;1.00
573;DHT22;271;51.114;13.780;2022-08-06T05:44:58;17.60;1.00
573;DHT22;271;51.114;13.780;2022-08-06T05:47:28;17.70;1.00
573;DHT22;271;51.114;13.780;2022-08-06T05:50:04;17.90;1.00
573;DHT22;271;51.114;13.780;2022-08-06T05:52:36;18.00;1.00
573;DHT22;271;51.114;13.780;2022-08-06T05:55:06;17.90;1.00
573;DHT22;271;51.114;13.780;2022-08-06T05:57:38;18.00;1.00
573;DHT22;271;51.114;13.780;2022-08-06T06:00:08;18.10;1.00
573;DHT22;271;51.114;13.780;2022-08-06T06:02:38;18.30;1.00
573;DHT22;271;51.114;13.780;2022-08-06T06:05:07;18.40;1.00
573;DHT22;271;51.114;13.780;2022-08-06T06:07:36;18.40;1.00
573;DHT22;271;51.114;13.780;2022-08-06T06:10:05;18.40;1.00
573;DHT22;271;51.114;13.780;2022-08-06T06:12:33;18.40;1.00
573;DHT22;271;51.114;13.780;2022-08-06T06:15:01;18.30;1.00
573;DHT22;271;51.114;13.780;2022-08-06T06:17:48;18.20;1.00
573;DHT22;271;51.114;13.780;2022-08-06T06:20:20;18.10;1.00
573;DHT22;271;51.114;13.780;2022-08-06T06:22:57;18.20;1.00
573;DHT22;271;51.114;13.780;2022-08-06T06:25:29;18.20;1.00
573;DHT22;271;51.114;13.780;2022-08-06T06:28:00;18.20;60.90
573;DHT22;271;51.114;13.780;2022-08-06T06:30:36;18.10;1.00
573;DHT22;271;51.114;13.780;2022-08-06T06:33:26;18.10;1.00
573;DHT22;271;51.114;13.780;2022-08-06T06:35:56;18.00;1.00
573;DHT22;271;51.114;13.780;2022-08-06T06:38:34;18.00;1.00
573;DHT22;271;51.114;13.780;2022-08-06T06:41:09;17.90;1.00
573;DHT22;271;51.114;13.780;2022-08-06T06:43:43;18.10;1.00
573;DHT22;271;51.114;13.780;2022-08-06T06:46:18;18.30;1.00
573;DHT22;271;51.114;13.780;2022-08-06T06:48:47;18.40;1.00
573;DHT22;271;51.114;13.780;2022-08-06T06:51:20;18.50;1.00
573;DHT22;271;51.114;13.780;2022-08-06T06:53:52;18.60;1.00
573;DHT22;271;51.114;13.780;2022-08-06T06:56:22;18.80;31.40
573;DHT22;271;51.114;13.780;2022-08-06T06:58:53;18.70;1.00
573;DHT22;271;51.114;13.780;2022-08-06T07:01:22;18.60;1.00
573;DHT22;271;51.114;13.780;2022-08-06T07:03:49;18.60;34.70
573;DHT22;271;51.114;13.780;2022-08-06T07:06:17;18.70;22.80
573;DHT22;271;51.114;13.780;2022-08-06T07:08:46;18.80;13.00
573;DHT22;271;51.114;13.780;2022-08-06T07:11:18;18.70;1.00
573;DHT22;271;51.114;13.780;2022-08-06T07:13:46;18.80;1.00
573;DHT22;271;51.114;13.780;2022-08-06T07:16:17;18.90;1.00
573;DHT22;271;51.114;13.780;2022-08-06T07:18:44;18.90;1.00
573;DHT22;271;51.114;13.780;2022-08-06T07:21:14;19.00;1.00
573;DHT22;271;51.114;13.780;2022-08-06T07:23:42;19.10;1.00
573;DHT22;271;51.114;13.780;2022-08-06T07:26:12;19.20;99.90
573;DHT22;271;51.114;13.780;2022-08-06T07:28:42;19.30;56.40
573;DHT22;271;51.114;13.780;2022-08-06T07:31:09;19.50;27.00
573;DHT22;271;51.114;13.780;2022-08-06T07:33:39;19.90;16.40
573;DHT22;271;51.114;13.780;2022-08-06T07:36:07;20.30;99.90
573;DHT22;271;51.114;13.780;2022-08-06T07:38:36;20.50;99.90
573;DHT22;271;51.114;13.780;2022-08-06T07:41:05;20.80;99.90
573;DHT22;271;51.114;13.780;2022-08-06T07:43:35;21.10;99.90
573;DHT22;271;51.114;13.780;2022-08-06T07:46:07;21.40;99.90
573;DHT22;271;51.114;13.780;2022-08-06T07:48:39;21.40;99.90
573;DHT22;271;51.114;13.780;2022-08-06T07:51:06;21.60;99.90
573;DHT22;271;51.114;13.780;2022-08-06T07:53:35;22.20;99.90
573;DHT22;271;51.114;13.780;2022-08-06T07:56:04;22.50;99.90
573;DHT22;271;51.114;13.780;2022-08-06T07:58:32;23.00;99.90
573;DHT22;271;51.114;13.780;2022-08-06T08:01:00;23.40;99.90
573;DHT22;271;51.114;13.780;2022-08-06T08:03:29;23.90;99.90
573;DHT22;271;51.114;13.780;2022-08-06T08:06:15;23.90;99.90
573;DHT22;271;51.114;13.780;2022-08-06T08:08:48;23.10;99.90
573;DHT22;271;51.114;13.780;2022-08-06T08:11:15;22.90;99.90
573;DHT22;271;51.114;13.780;2022-08-06T08:13:42;23.10;99.90
573;DHT22;271;51.114;13.780;2022-08-06T08:16:12;23.30;99.90
573;DHT22;271;51.114;13.780;2022-08-06T08:18:40;23.40;99.90
573;DHT22;271;51.114;13.780;2022-08-06T08:21:08;23.60;99.90
573;DHT22;271;51.114;13.780;2022-08-06T08:23:38;23.70;99.90
573;DHT22;271;51.114;13.780;2022-08-06T08:26:05;23.70;99.90
573;DHT22;271;51.114;13.780;2022-08-06T08:28:32;23.90;1.00
573;DHT22;271;51.114;13.780;2022-08-06T08:31:00;23.70;1.00
573;DHT22;271;51.114;13.780;2022-08-06T08:33:29;23.50;1.00
573;DHT22;271;51.114;13.780;2022-08-06T08:35:58;23.70;1.00
573;DHT22;271;51.114;13.780;2022-08-06T08:38:26;23.40;1.00
573;DHT22;271;51.114;13.780;2022-08-06T08:40:54;23.30;1.00
573;DHT22;271;51.114;13.780;2022-08-06T08:43:24;23.60;99.90
573;DHT22;271;51.114;13.780;2022-08-06T08:45:52;23.70;1.00
573;DHT22;271;51.114;13.780;2022-08-06T08:48:23;23.30;1.00
573;DHT22;271;51.114;13.780;2022-08-06T08:50:58;23.10;1.00
573;DHT22;271;51.114;13.780;2022-08-06T08:53:29;23.10;99.90
573;DHT22;271;51.114;13.780;2022-08-06T08:56:00;23.20;1.00
573;DHT22;271;51.114;13.780;2022-08-06T08:58:27;23.10;1.00
573;DHT22;271;51.114;13.780;2022-08-06T09:00:54;23.40;1.00
573;DHT22;271;51.114;13.780;2022-08-06T09:03:21;23.80;1.00
573;DHT22;271;51.114;13.780;2022-08-06T09:05:48;23.90;1.00
573;DHT22;271;51.114;13.780;2022-08-06T09:08:17;24.00;1.00
573;DHT22;271;51.114;13.780;2022-08-06T09:10:44;23.70;1.00
573;DHT22;271;51.114;13.780;2022-08-06T09:13:11;23.40;1.00
573;DHT22;271;51.114;13.780;2022-08-06T09:15:38;23.40;1.00
573;DHT22;271;51.114;13.780;2022-08-06T09:18:06;23.40;1.00
573;DHT22;271;51.114;13.780;2022-08-06T09:20:34;23.20;1.00
573;DHT22;271;51.114;13.780;2022-08-06T09:23:01;23.40;1.00
573;DHT22;271;51.114;13.780;2022-08-06T09:25:42;23.50;1.00
573;DHT22;271;51.114;13.780;2022-08-06T09:28:09;23.80;1.00
573;DHT22;271;51.114;13.780;2022-08-06T09:30:37;24.10;1.00
573;DHT22;271;51.114;13.780;2022-08-06T09:33:10;23.80;1.00
573;DHT22;271;51.114;13.780;2022-08-06T09:35:38;24.00;1.00
573;DHT22;271;51.114;13.780;2022-08-06T09:38:07;24.20;1.00
573;DHT22;271;51.114;13.780;2022-08-06T09:40:35;24.30;1.00
573;DHT22;271;51.114;13.780;2022-08-06T09:43:03;24.70;1.00
573;DHT22;271;51.114;13.780;2022-08-06T09:45:30;24.80;1.00
573;DHT22;271;51.114;13.780;2022-08-06T09:48:01;25.10;1.00
573;DHT22;271;51.114;13.780;2022-08-06T09:50:36;25.30;1.00
573;DHT22;271;51.114;13.780;2022-08-06T09:53:04;25.40;1.00
573;DHT22;271;51.114;13.780;2022-08-06T09:55:31;25.30;1.00
573;DHT22;271;51.114;13.780;2022-08-06T09:57:58;25.50;1.00
573;DHT22;271;51.114;13.780;2022-08-06T10:00:28;25.60;1.00
573;DHT22;271;51.114;13.780;2022-08-06T10:02:56;25.90;1.00
573;DHT22;271;51.114;13.780;2022-08-06T10:05:24;25.60;1.00
573;DHT22;271;51.114;13.780;2022-08-06T10:08:06;25.60;1.00
573;DHT22;271;51.114;13.780;2022-08-06T10:10:41;25.60;1.00
573;DHT22;271;51.114;13.780;2022-08-06T10:13:18;25.70;1.00
573;DHT22;271;51.114;13.780;2022-08-06T10:15:47;25.90;1.00
573;DHT22;271;51.114;13.780;2022-08-06T10:18:33;26.40;1.00
573;DHT22;271;51.114;13.780;2022-08-06T10:21:03;26.30;1.00
573;DHT22;271;51.114;13.780;2022-08-06T10:23:31;26.30;1.00
573;DHT22;271;51.114;13.780;2022-08-06T10:26:00;26.20;1.00
573;DHT22;271;51.114;13.780;2022-08-06T10:28:27;25.90;1.00
573;DHT22;271;51.114;13.780;2022-08-06T10:30:56;26.10;1.00
573;DHT22;271;51.114;13.780;2022-08-06T10:33:30;26.40;1.00
573;DHT22;271;51.114;13.780;2022-08-06T10:36:04;26.40;1.00
573;DHT22;271;51.114;13.780;2022-08-06T10:38:34;26.20;1.00
573;DHT22;271;51.114;13.780;2022-08-06T10:41:05;26.50;1.00
573;DHT22;271;51.114;13.780;2022-08-06T10:43:34;26.60;1.00
573;DHT22;271;51.114;13.780;2022-08-06T10:46:04;26.80;1.00
573;DHT22;271;51.114;13.780;2022-08-06T10:48:33;26.90;1.00
573;DHT22;271;51.114;13.780;2022-08-06T10:51:01;27.10;1.00
573;DHT22;271;51.114;13.780;2022-08-06T10:53:29;27.10;1.00
573;DHT22;271;51.114;13.780;2022-08-06T10:55:59;27.40;1.00
573;DHT22;271;51.114;13.780;2022-08-06T10:58:26;27.30;1.00
573;DHT22;271;51.114;13.780;2022-08-06T11:00:53;27.10;1.00
573;DHT22;271;51.114;13.780;2022-08-06T11:03:27;27.20;1.00
573;DHT22;271;51.114;13.780;2022-08-06T11:06:11;27.00;1.00
573;DHT22;271;51.114;13.780;2022-08-06T11:08:50;26.90;1.00
573;DHT22;271;51.114;13.780;2022-08-06T11:11:26;26.70;1.00
573;DHT22;271;51.114;13.780;2022-08-06T11:14:01;26.60;1.00
573;DHT22;271;51.114;13.780;2022-08-06T11:16:29;26.40;1.00
573;DHT22;271;51.114;13.780;2022-08-06T11:19:03;26.30;1.00
573;DHT22;271;51.114;13.780;2022-08-06T11:21:41;26.50;1.00
573;DHT22;271;51.114;13.780;2022-08-06T11:24:09;26.40;1.00
573;DHT22;271;51.114;13.780;2022-08-06T11:26:38;26.20;1.00
573;DHT22;271;51.114;13.780;2022-08-06T11:29:06;25.90;1.00
573;DHT22;271;51.114;13.780;2022-08-06T11:31:35;25.50;1.00
573;DHT22;271;51.114;13.780;2022-08-06T11:34:06;25.40;1.00
573;DHT22;271;51.114;13.780;2022-08-06T11:36:52;25.20;1.00
573;DHT22;271;51.114;13.780;2022-08-06T11:39:21;25.10;1.00
573;DHT22;271;51.114;13.780;2022-08-06T11:41:53;24.90;1.00
573;DHT22;271;51.114;13.780;2022-08-06T11:44:21;24.90;1.00
573;DHT22;271;51.114;13.780;2022-08-06T11:46:49;24.90;1.00
573;DHT22;271;51.114;13.780;2022-08-06T11:49:37;25.00;1.00
573;DHT22;271;51.114;13.780;2022-08-06T11:52:05;24.70;1.00
573;DHT22;271;51.114;13.780;2022-08-06T11:54:33;24.60;1.00
573;DHT22;271;51.114;13.780;2022-08-06T11:57:21;24.50;1.00
573;DHT22;271;51.114;13.780;2022-08-06T12:00:05;24.40;1.00
573;DHT22;271;51.114;13.780;2022-08-06T12:02:52;24.30;1.00
573;DHT22;271;51.114;13.780;2022-08-06T12:05:48;24.40;1.00
573;DHT22;271;51.114;13.780;2022-08-06T12:08:25;24.40;1.00
573;DHT22;271;51.114;13.780;2022-08-06T12:11:21;24.40;1.00
573;DHT22;271;51.114;13.780;2022-08-06T12:13:49;24.20;1.00
573;DHT22;271;51.114;13.780;2022-08-06T12:16:36;24.10;1.00
573;DHT22;271;51.114;13.780;2022-08-06T12:19:06;23.80;1.00
573;DHT22;271;51.114;13.780;2022-08-06T12:21:39;23.70;1.00
573;DHT22;271;51.114;13.780;2022-08-06T12:24:07;23.70;1.00
573;DHT22;271;51.114;13.780;2022-08-06T12:26:35;23.60;1.00
573;DHT22;271;51.114;13.780;2022-08-06T12:29:06;23.60;1.00
573;DHT22;271;51.114;13.780;2022-08-06T12:31:35;23.70;1.00
573;DHT22;271;51.114;13.780;2022-08-06T12:34:03;23.80;1.00
573;DHT22;271;51.114;13.780;2022-08-06T12:36:32;24.00;1.00
573;DHT22;271;51.114;13.780;2022-08-06T12:39:03;24.10;1.00
573;DHT22;271;51.114;13.780;2022-08-06T12:41:40;23.90;1.00
573;DHT22;271;51.114;13.780;2022-08-06T12:44:11;23.80;1.00
573;DHT22;271;51.114;13.780;2022-08-06T12:46:38;23.90;1.00
573;DHT22;271;51.114;13.780;2022-08-06T12:49:06;24.00;1.00
573;DHT22;271;51.114;13.780;2022-08-06T12:51:34;24.10;1.00
573;DHT22;271;51.114;13.780;2022-08-06T12:54:04;24.10;1.00
573;DHT22;271;51.114;13.780;2022-08-06T12:56:36;24.30;1.00
573;DHT22;271;51.114;13.780;2022-08-06T12:59:05;24.20;1.00
573;DHT22;271;51.114;13.780;2022-08-06T13:01:34;24.20;1.00
573;DHT22;271;51.114;13.780;2022-08-06T13:04:02;24.30;1.00
573;DHT22;271;51.114;13.780;2022-08-06T13:06:33;24.50;1.00
573;DHT22;271;51.114;13.780;2022-08-06T13:09:02;24.50;1.00
573;DHT22;271;51.114;13.780;2022-08-06T13:11:31;24.50;1.00
573;DHT22;271;51.114;13.780;2022-08-06T13:14:07;24.60;1.00
573;DHT22;271;51.114;13.780;2022-08-06T13:16:40;24.60;1.00
573;DHT22;271;51.114;13.780;2022-08-06T13:19:08;24.70;1.00
573;DHT22;271;51.114;13.780;2022-08-06T13:21:36;24.80;1.00
573;DHT22;271;51.114;13.780;2022-08-06T13:24:07;24.70;1.00
573;DHT22;271;51.114;13.780;2022-08-06T13:26:47;24.70;1.00
573;DHT22;271;51.114;13.780;2022-08-06T13:29:16;24.60;1.00
573;DHT22;271;51.114;13.780;2022-08-06T13:31:44;24.60;1.00
573;DHT22;271;51.114;13.780;2022-08-06T13:34:13;24.70;1.00
573;DHT22;271;51.114;13.780;2022-08-06T13:36:43;24.70;1.00
573;DHT22;271;51.114;13.780;2022-08-06T13:39:22;24.80;1.00
573;DHT22;271;51.114;13.780;2022-08-06T13:42:07;24.70;1.00
573;DHT22;271;51.114;13.780;2022-08-06T13:44:38;24.70;1.00
573;DHT22;271;51.114;13.780;2022-08-06T13:47:05;24.80;1.00
573;DHT22;271;51.114;13.780;2022-08-06T13:49:33;24.60;1.00
573;DHT22;271;51.114;13.780;2022-08-06T13:52:00;24.70;1.00
573;DHT22;271;51.114;13.780;2022-08-06T13:54:28;24.80;1.00
573;DHT22;271;51.114;13.780;2022-08-06T13:56:56;24.90;1.00
573;DHT22;271;51.114;13.780;2022-08-06T13:59:25;25.00;1.00
573;DHT22;271;51.114;13.780;2022-08-06T14:01:52;25.10;1.00
573;DHT22;271;51.114;13.780;2022-08-06T14:04:21;25.10;1.00
573;DHT22;271;51.114;13.780;2022-08-06T14:06:49;25.00;1.00
573;DHT22;271;51.114;13.780;2022-08-06T14:09:19;25.10;1.00
573;DHT22;271;51.114;13.780;2022-08-06T14:11:49;25.20;1.00
573;DHT22;271;51.114;13.780;2022-08-06T14:14:19;25.10;1.00
573;DHT22;271;51.114;13.780;2022-08-06T14:16:46;24.90;1.00
573;DHT22;271;51.114;13.780;2022-08-06T14:19:12;24.90;1.00
573;DHT22;271;51.114;13.780;2022-08-06T14:21:39;24.80;1.00
573;DHT22;271;51.114;13.780;2022-08-06T14:24:06;24.60;1.00
573;DHT22;271;51.114;13.780;2022-08-06T14:26:33;24.50;1.00
573;DHT22;271;51.114;13.780;2022-08-06T14:29:01;24.50;1.00
573;DHT22;271;51.114;13.780;2022-08-06T14:31:29;24.40;1.00
573;DHT22;271;51.114;13.780;2022-08-06T14:33:56;24.40;1.00
573;DHT22;271;51.114;13.780;2022-08-06T14:36:24;24.40;1.00
573;DHT22;271;51.114;13.780;2022-08-06T14:38:52;24.30;1.00
573;DHT22;271;51.114;13.780;2022-08-06T14:41:19;24.30;1.00
573;DHT22;271;51.114;13.780;2022-08-06T14:44:04;24.30;1.00
573;DHT22;271;51.114;13.780;2022-08-06T14:46:49;24.30;1.00
573;DHT22;271;51.114;13.780;2022-08-06T14:49:16;24.30;1.00
573;DHT22;271;51.114;13.780;2022-08-06T14:51:43;24.20;1.00
573;DHT22;271;51.114;13.780;2022-08-06T14:54:10;24.20;1.00
573;DHT22;271;51.114;13.780;2022-08-06T14:56:37;24.10;1.00
573;DHT22;271;51.114;13.780;2022-08-06T14:59:05;24.10;1.00
573;DHT22;271;51.114;13.780;2022-08-06T15:01:32;24.20;1.00
573;DHT22;271;51.114;13.780;2022-08-06T15:03:59;24.20;1.00
573;DHT22;271;51.114;13.780;2022-08-06T15:06:26;24.20;1.00
573;DHT22;271;51.114;13.780;2022-08-06T15:08:53;24.30;1.00
573;DHT22;271;51.114;13.780;2022-08-06T15:11:19;24.20;1.00
573;DHT22;271;51.114;13.780;2022-08-06T15:13:46;24.00;1.00
573;DHT22;271;51.114;13.780;2022-08-06T15:16:14;24.00;1.00
573;DHT22;271;51.114;13.780;2022-08-06T15:18:41;23.90;1.00
573;DHT22;271;51.114;13.780;2022-08-06T15:21:09;23.90;1.00
573;DHT22;271;51.114;13.780;2022-08-06T15:23:36;23.80;1.00
573;DHT22;271;51.114;13.780;2022-08-06T15:26:03;23.80;1.00
573;DHT22;271;51.114;13.780;2022-08-06T15:28:30;23.80;1.00
573;DHT22;271;51.114;13.780;2022-08-06T15:30:58;23.80;1.00
573;DHT22;271;51.114;13.780;2022-08-06T15:33:27;23.80;1.00
573;DHT22;271;51.114;13.780;2022-08-06T15:35:54;23.70;1.00
573;DHT22;271;51.114;13.780;2022-08-06T15:38:21;23.80;1.00
573;DHT22;271;51.114;13.780;2022-08-06T15:40:48;23.80;1.00
573;DHT22;271;51.114;13.780;2022-08-06T15:43:15;23.70;1.00
573;DHT22;271;51.114;13.780;2022-08-06T15:45:42;23.60;1.00
573;DHT22;271;51.114;13.780;2022-08-06T15:48:08;23.60;1.00
573;DHT22;271;51.114;13.780;2022-08-06T15:50:41;23.70;1.00
573;DHT22;271;51.114;13.780;2022-08-06T15:53:08;23.60;1.00
573;DHT22;271;51.114;13.780;2022-08-06T15:55:35;23.60;1.00
573;DHT22;271;51.114;13.780;2022-08-06T15:58:02;23.50;1.00
573;DHT22;271;51.114;13.780;2022-08-06T16:00:29;23.50;1.00
573;DHT22;271;51.114;13.780;2022-08-06T16:02:56;23.60;1.00
573;DHT22;271;51.114;13.780;2022-08-06T16:05:23;23.50;1.00
573;DHT22;271;51.114;13.780;2022-08-06T16:07:54;23.50;1.00
573;DHT22;271;51.114;13.780;2022-08-06T16:10:22;23.40;1.00
573;DHT22;271;51.114;13.780;2022-08-06T16:12:50;23.30;1.00
573;DHT22;271;51.114;13.780;2022-08-06T16:15:17;23.40;1.00
573;DHT22;271;51.114;13.780;2022-08-06T16:17:44;23.30;1.00
573;DHT22;271;51.114;13.780;2022-08-06T16:20:11;23.30;1.00
573;DHT22;271;51.114;13.780;2022-08-06T16:22:38;23.20;1.00
573;DHT22;271;51.114;13.780;2022-08-06T16:25:07;23.10;1.00
573;DHT22;271;51.114;13.780;2022-08-06T16:27:34;23.10;1.00
573;DHT22;271;51.114;13.780;2022-08-06T16:30:01;23.00;1.00
573;DHT22;271;51.114;13.780;2022-08-06T16:32:28;23.00;1.00
573;DHT22;271;51.114;13.780;2022-08-06T16:34:54;23.00;1.00
573;DHT22;271;51.114;13.780;2022-08-06T16:37:24;23.00;1.00
573;DHT22;271;51.114;13.780;2022-08-06T16:39:51;23.00;1.00
573;DHT22;271;51.114;13.780;2022-08-06T16:42:19;23.00;1.00
573;DHT22;271;51.114;13.780;2022-08-06T16:44:46;22.90;1.00
573;DHT22;271;51.114;13.780;2022-08-06T16:47:13;23.00;1.00
573;DHT22;271;51.114;13.780;2022-08-06T16:49:40;22.90;1.00